createdAt,value
2018-09-25T00:00:00.583Z,12.78
2018-09-25T00:00:31.709Z,12.79
2018-09-25T00:01:02.821Z,12.80
2018-09-25T00:01:33.938Z,12.74
2018-09-25T00:02:05.057Z,12.76
2018-09-25T00:02:36.197Z,12.77
2018-09-25T00:03:07.303Z,12.77
2018-09-25T00:03:38.465Z,12.79
2018-09-25T00:04:09.577Z,12.78
2018-09-25T00:04:40.682Z,12.79
2018-09-25T00:06:13.403Z,12.84
2018-09-25T00:06:44.503Z,12.88
2018-09-25T00:07:15.607Z,12.92
2018-09-25T00:07:46.706Z,12.97
2018-09-25T00:08:17.811Z,12.99
2018-09-25T00:08:48.941Z,13.00
2018-09-25T00:09:20.074Z,13.02
2018-09-25T00:09:51.225Z,13.05
2018-09-25T00:10:22.353Z,13.08
2018-09-25T00:10:53.463Z,13.11
2018-09-25T00:11:24.575Z,13.14
2018-09-25T00:11:55.690Z,13.17
2018-09-25T00:12:26.800Z,13.19
2018-09-25T00:12:57.925Z,13.23
2018-09-25T00:13:29.017Z,13.24
2018-09-25T00:14:00.152Z,13.28
2018-09-25T00:14:31.288Z,13.29
2018-09-25T00:15:02.390Z,13.31
2018-09-25T00:15:33.489Z,13.31
2018-09-25T00:16:04.628Z,13.33
2018-09-25T00:16:35.738Z,13.32
2018-09-25T00:17:06.893Z,13.33
2018-09-25T00:17:38.002Z,13.36
2018-09-25T00:18:09.107Z,13.37
2018-09-25T00:18:40.234Z,13.38
2018-09-25T00:19:11.369Z,13.42
2018-09-25T00:19:42.495Z,13.43
2018-09-25T00:20:13.689Z,13.45
2018-09-25T00:20:44.790Z,13.45
2018-09-25T00:21:15.903Z,13.43
2018-09-25T00:21:47.015Z,13.49
2018-09-25T00:22:18.118Z,13.54
2018-09-25T00:22:49.676Z,13.54
2018-09-25T00:23:20.778Z,13.55
2018-09-25T00:23:51.884Z,13.57
2018-09-25T00:24:22.983Z,13.58
2018-09-25T00:24:54.093Z,13.60
2018-09-25T00:25:25.232Z,13.59
2018-09-25T00:25:56.334Z,13.62
2018-09-25T00:26:27.430Z,13.60
2018-09-25T00:26:58.557Z,13.57
2018-09-25T00:27:29.692Z,13.55
2018-09-25T00:28:00.800Z,13.55
2018-09-25T00:28:31.904Z,13.55
2018-09-25T00:29:03.003Z,13.53
2018-09-25T00:29:34.097Z,13.50
2018-09-25T00:30:05.201Z,13.48
2018-09-25T00:30:36.346Z,13.48
2018-09-25T00:31:07.455Z,13.48
2018-09-25T00:31:38.555Z,13.51
2018-09-25T00:32:09.673Z,13.52
2018-09-25T00:32:40.781Z,13.54
2018-09-25T00:33:11.947Z,13.52
2018-09-25T00:33:43.067Z,13.50
2018-09-25T00:34:14.209Z,13.53
2018-09-25T00:34:45.321Z,13.56
2018-09-25T00:35:16.423Z,13.62
2018-09-25T00:35:47.521Z,13.63
2018-09-25T00:36:18.652Z,13.66
2018-09-25T00:36:49.830Z,13.66
2018-09-25T00:37:20.952Z,13.66
2018-09-25T00:37:52.049Z,13.64
2018-09-25T00:38:23.182Z,13.62
2018-09-25T00:38:54.310Z,13.65
2018-09-25T00:39:25.440Z,13.62
2018-09-25T00:39:56.531Z,13.62
2018-09-25T00:40:27.619Z,13.58
2018-09-25T00:40:58.734Z,13.63
2018-09-25T00:41:29.834Z,13.71
2018-09-25T00:42:00.937Z,13.71
2018-09-25T00:42:32.083Z,13.68
2018-09-25T00:43:03.223Z,13.65
2018-09-25T00:43:34.362Z,13.62
2018-09-25T00:44:05.453Z,13.59
2018-09-25T00:44:36.558Z,13.58
2018-09-25T00:45:07.656Z,13.59
2018-09-25T00:45:38.768Z,13.59
2018-09-25T00:46:09.869Z,13.60
2018-09-25T00:46:40.975Z,13.60
2018-09-25T00:47:12.149Z,13.63
2018-09-25T00:47:43.271Z,13.73
2018-09-25T00:48:14.386Z,13.81
2018-09-25T00:48:45.506Z,13.85
2018-09-25T00:49:16.609Z,13.84
2018-09-25T00:49:47.804Z,13.79
2018-09-25T00:50:18.904Z,13.76
2018-09-25T00:50:50.020Z,13.71
2018-09-25T00:51:21.142Z,13.74
2018-09-25T00:51:52.255Z,13.72
2018-09-25T00:52:23.359Z,13.79
2018-09-25T00:52:54.466Z,13.81
2018-09-25T00:53:25.576Z,13.82
2018-09-25T00:53:56.705Z,13.81
2018-09-25T00:54:27.866Z,13.82
2018-09-25T00:54:59.009Z,13.81
2018-09-25T00:55:30.137Z,13.79
2018-09-25T00:56:01.266Z,13.75
2018-09-25T00:56:32.402Z,13.75
2018-09-25T00:57:03.501Z,13.71
2018-09-25T00:57:34.594Z,13.66
2018-09-25T00:58:05.713Z,13.66
2018-09-25T00:58:36.867Z,13.68
2018-09-25T00:59:07.986Z,13.68
2018-09-25T00:59:39.113Z,13.68
2018-09-25T01:00:10.260Z,13.73
2018-09-25T01:00:41.386Z,13.77
2018-09-25T01:01:12.508Z,13.76
2018-09-25T01:01:43.609Z,13.72
2018-09-25T01:02:14.715Z,13.74
2018-09-25T01:02:45.880Z,13.78
2018-09-25T01:03:16.976Z,13.81
2018-09-25T01:03:48.078Z,13.82
2018-09-25T01:04:19.179Z,13.80
2018-09-25T01:04:50.279Z,13.76
2018-09-25T01:05:21.387Z,13.70
2018-09-25T01:05:52.497Z,13.67
2018-09-25T01:06:23.595Z,13.61
2018-09-25T01:06:54.709Z,13.58
2018-09-25T01:07:25.808Z,13.60
2018-09-25T01:07:56.945Z,13.62
2018-09-25T01:08:28.056Z,13.61
2018-09-25T01:08:59.179Z,13.62
2018-09-25T01:09:30.282Z,13.61
2018-09-25T01:10:01.387Z,13.59
2018-09-25T01:10:32.541Z,13.60
2018-09-25T01:11:03.693Z,13.56
2018-09-25T01:11:34.795Z,13.61
2018-09-25T01:12:05.903Z,13.65
2018-09-25T01:12:37.006Z,13.64
2018-09-25T01:13:08.136Z,13.60
2018-09-25T01:13:39.236Z,13.61
2018-09-25T01:14:10.333Z,13.65
2018-09-25T01:14:41.478Z,13.75
2018-09-25T01:15:12.622Z,13.71
2018-09-25T01:15:43.730Z,13.66
2018-09-25T01:16:14.830Z,13.61
2018-09-25T01:16:45.944Z,13.58
2018-09-25T01:17:17.051Z,13.56
2018-09-25T01:17:48.203Z,13.53
2018-09-25T01:18:19.309Z,13.49
2018-09-25T01:18:50.424Z,13.49
2018-09-25T01:19:21.594Z,13.47
2018-09-25T01:19:52.723Z,13.50
2018-09-25T01:20:23.828Z,13.57
2018-09-25T01:20:54.932Z,13.58
2018-09-25T01:21:26.039Z,13.56
2018-09-25T01:21:57.194Z,13.62
2018-09-25T01:22:28.315Z,13.66
2018-09-25T01:22:59.451Z,13.68
2018-09-25T01:23:30.549Z,13.72
2018-09-25T01:24:01.679Z,13.73
2018-09-25T01:24:32.817Z,13.73
2018-09-25T01:25:03.913Z,13.69
2018-09-25T01:25:35.006Z,13.68
2018-09-25T01:26:06.117Z,13.73
2018-09-25T01:26:37.215Z,13.76
2018-09-25T01:27:08.315Z,13.75
2018-09-25T01:27:39.463Z,13.83
2018-09-25T01:28:10.592Z,13.92
2018-09-25T01:28:41.715Z,13.89
2018-09-25T01:29:12.824Z,13.85
2018-09-25T01:29:43.983Z,13.78
2018-09-25T01:30:15.098Z,13.67
2018-09-25T01:30:46.232Z,13.68
2018-09-25T01:31:17.343Z,13.67
2018-09-25T01:31:48.437Z,13.66
2018-09-25T01:32:19.548Z,13.62
2018-09-25T01:32:50.666Z,13.58
2018-09-25T01:33:21.852Z,13.62
2018-09-25T01:33:52.959Z,13.65
2018-09-25T01:34:24.072Z,13.71
2018-09-25T01:34:55.201Z,13.67
2018-09-25T01:35:26.307Z,13.64
2018-09-25T01:35:57.421Z,13.61
2018-09-25T01:36:28.539Z,13.57
2018-09-25T01:36:59.671Z,13.57
2018-09-25T01:37:30.786Z,13.55
2018-09-25T01:38:01.923Z,13.52
2018-09-25T01:38:33.039Z,13.58
2018-09-25T01:39:04.163Z,13.57
2018-09-25T01:39:35.258Z,13.57
2018-09-25T01:40:06.350Z,13.60
2018-09-25T01:40:37.445Z,13.58
2018-09-25T01:41:08.534Z,13.55
2018-09-25T01:41:39.629Z,13.54
2018-09-25T01:42:10.733Z,13.55
2018-09-25T01:42:41.867Z,13.56
2018-09-25T01:43:12.962Z,13.68
2018-09-25T01:43:44.079Z,13.70
2018-09-25T01:44:15.200Z,13.68
2018-09-25T01:44:46.302Z,13.69
2018-09-25T01:45:17.422Z,13.64
2018-09-25T01:45:48.539Z,13.65
2018-09-25T01:46:19.650Z,13.71
2018-09-25T01:46:50.795Z,13.73
2018-09-25T01:47:21.960Z,13.71
2018-09-25T01:47:53.057Z,13.64
2018-09-25T01:48:24.194Z,13.62
2018-09-25T01:48:55.297Z,13.59
2018-09-25T01:49:26.395Z,13.64
2018-09-25T01:49:57.505Z,13.62
2018-09-25T01:50:28.630Z,13.63
2018-09-25T01:50:59.735Z,13.63
2018-09-25T01:51:30.831Z,13.62
2018-09-25T01:52:01.942Z,13.73
2018-09-25T01:52:33.042Z,13.85
2018-09-25T01:53:04.210Z,13.83
2018-09-25T01:53:35.315Z,13.74
2018-09-25T01:54:06.414Z,13.65
2018-09-25T01:54:37.541Z,13.62
2018-09-25T01:55:08.689Z,13.64
2018-09-25T01:55:39.796Z,13.72
2018-09-25T01:56:10.926Z,13.80
2018-09-25T01:56:42.033Z,13.80
2018-09-25T01:57:13.153Z,13.75
2018-09-25T01:57:44.265Z,13.71
2018-09-25T01:58:15.403Z,13.68
2018-09-25T01:58:46.521Z,13.65
2018-09-25T01:59:17.655Z,13.61
2018-09-25T01:59:48.789Z,13.63
2018-09-25T02:00:19.892Z,13.65
2018-09-25T02:00:50.993Z,13.64
2018-09-25T02:01:22.114Z,13.66
2018-09-25T02:01:53.206Z,13.73
2018-09-25T02:02:24.374Z,13.73
2018-09-25T02:02:55.479Z,13.73
2018-09-25T02:03:26.628Z,13.69
2018-09-25T02:03:57.748Z,13.72
2018-09-25T02:04:28.849Z,13.68
2018-09-25T02:04:59.958Z,13.73
2018-09-25T02:05:31.069Z,13.75
2018-09-25T02:06:02.167Z,13.73
2018-09-25T02:06:33.270Z,13.80
2018-09-25T02:07:04.406Z,13.72
2018-09-25T02:07:35.519Z,13.63
2018-09-25T02:08:06.630Z,13.64
2018-09-25T02:08:37.795Z,13.66
2018-09-25T02:09:08.897Z,13.63
2018-09-25T02:09:40.000Z,13.68
2018-09-25T02:10:11.148Z,13.69
2018-09-25T02:10:42.280Z,13.65
2018-09-25T02:11:13.389Z,13.60
2018-09-25T02:11:44.503Z,13.69
2018-09-25T02:12:15.616Z,13.73
2018-09-25T02:12:46.744Z,13.73
2018-09-25T02:13:17.881Z,13.73
2018-09-25T02:13:49.031Z,13.75
2018-09-25T02:14:20.178Z,13.73
2018-09-25T02:14:51.283Z,13.69
2018-09-25T02:15:22.388Z,13.65
2018-09-25T02:15:53.517Z,13.58
2018-09-25T02:16:24.630Z,13.59
2018-09-25T02:16:55.766Z,13.65
2018-09-25T02:17:26.886Z,13.74
2018-09-25T02:17:58.019Z,13.75
2018-09-25T02:18:29.150Z,13.71
2018-09-25T02:19:00.276Z,13.64
2018-09-25T02:19:31.383Z,13.64
2018-09-25T02:20:02.524Z,13.64
2018-09-25T02:20:33.644Z,13.70
2018-09-25T02:21:04.758Z,13.71
2018-09-25T02:21:35.893Z,13.79
2018-09-25T02:22:07.008Z,13.86
2018-09-25T02:22:38.118Z,13.79
2018-09-25T02:23:09.223Z,13.72
2018-09-25T02:23:40.340Z,13.67
2018-09-25T02:24:11.450Z,13.66
2018-09-25T02:24:42.568Z,13.68
2018-09-25T02:25:13.724Z,13.62
2018-09-25T02:25:44.832Z,13.57
2018-09-25T02:26:16.010Z,13.52
2018-09-25T02:26:47.136Z,13.49
2018-09-25T02:27:18.252Z,13.56
2018-09-25T02:27:49.393Z,13.56
2018-09-25T02:28:20.550Z,13.54
2018-09-25T02:28:51.677Z,13.56
2018-09-25T02:29:22.791Z,13.59
2018-09-25T02:29:53.905Z,13.64
2018-09-25T02:30:25.011Z,13.64
2018-09-25T02:30:56.135Z,13.66
2018-09-25T02:31:27.291Z,13.75
2018-09-25T02:31:58.402Z,13.74
2018-09-25T02:32:29.510Z,13.68
2018-09-25T02:33:00.629Z,13.68
2018-09-25T02:33:31.743Z,13.70
2018-09-25T02:34:02.850Z,13.68
2018-09-25T02:34:33.959Z,13.69
2018-09-25T02:35:05.087Z,13.65
2018-09-25T02:35:36.213Z,13.58
2018-09-25T02:36:07.322Z,13.50
2018-09-25T02:36:38.486Z,13.53
2018-09-25T02:37:09.588Z,13.51
2018-09-25T02:37:40.691Z,13.48
2018-09-25T02:38:11.796Z,13.41
2018-09-25T02:38:42.894Z,13.48
2018-09-25T02:39:14.004Z,13.57
2018-09-25T02:39:45.111Z,13.60
2018-09-25T02:40:16.246Z,13.59
2018-09-25T02:40:47.359Z,13.61
2018-09-25T02:41:18.482Z,13.64
2018-09-25T02:41:49.621Z,13.67
2018-09-25T02:42:20.767Z,13.65
2018-09-25T02:42:51.908Z,13.59
2018-09-25T02:43:23.026Z,13.60
2018-09-25T02:43:54.157Z,13.65
2018-09-25T02:44:25.273Z,13.69
2018-09-25T02:44:56.449Z,13.68
2018-09-25T02:45:27.597Z,13.72
2018-09-25T02:45:58.757Z,13.83
2018-09-25T02:46:29.854Z,13.88
2018-09-25T02:47:00.969Z,13.85
2018-09-25T02:47:32.067Z,13.84
2018-09-25T02:48:03.169Z,13.78
2018-09-25T02:48:34.293Z,13.74
2018-09-25T02:49:05.413Z,13.69
2018-09-25T02:49:36.525Z,13.72
2018-09-25T02:50:07.684Z,13.73
2018-09-25T02:50:38.813Z,13.71
2018-09-25T02:51:09.930Z,13.72
2018-09-25T02:51:41.043Z,13.64
2018-09-25T02:52:12.166Z,13.64
2018-09-25T02:52:43.333Z,13.65
2018-09-25T02:53:14.444Z,13.72
2018-09-25T02:53:45.571Z,13.69
2018-09-25T02:54:16.682Z,13.66
2018-09-25T02:54:47.782Z,13.61
2018-09-25T02:55:18.889Z,13.55
2018-09-25T02:55:50.009Z,13.53
2018-09-25T02:56:21.122Z,13.53
2018-09-25T02:56:52.231Z,13.50
2018-09-25T02:57:23.376Z,13.48
2018-09-25T02:57:54.530Z,13.51
2018-09-25T02:58:25.640Z,13.51
2018-09-25T02:58:56.793Z,13.51
2018-09-25T02:59:27.898Z,13.53
2018-09-25T02:59:59.002Z,13.52
2018-09-25T03:00:30.110Z,13.55
2018-09-25T03:01:01.201Z,13.52
2018-09-25T03:01:32.326Z,13.60
2018-09-25T03:02:03.418Z,13.63
2018-09-25T03:02:34.526Z,13.68
2018-09-25T03:03:05.652Z,13.66
2018-09-25T03:03:36.762Z,13.59
2018-09-25T03:04:07.939Z,13.61
2018-09-25T03:04:39.069Z,13.65
2018-09-25T03:05:10.176Z,13.62
2018-09-25T03:05:41.275Z,13.64
2018-09-25T03:06:12.387Z,13.66
2018-09-25T03:06:43.507Z,13.67
2018-09-25T03:07:14.605Z,13.73
2018-09-25T03:07:45.735Z,13.75
2018-09-25T03:08:16.829Z,13.77
2018-09-25T03:08:47.929Z,13.77
2018-09-25T03:09:19.093Z,13.79
2018-09-25T03:09:50.252Z,13.87
2018-09-25T03:10:21.381Z,13.91
2018-09-25T03:10:52.491Z,14.02
2018-09-25T03:11:23.589Z,13.98
2018-09-25T03:11:54.750Z,13.92
2018-09-25T03:12:25.863Z,13.89
2018-09-25T03:12:56.968Z,13.83
2018-09-25T03:13:28.102Z,13.78
2018-09-25T03:13:59.232Z,13.76
2018-09-25T03:14:30.345Z,13.76
2018-09-25T03:15:01.487Z,13.73
2018-09-25T03:15:32.598Z,13.74
2018-09-25T03:16:03.700Z,13.77
2018-09-25T03:16:34.811Z,13.75
2018-09-25T03:17:05.954Z,13.65
2018-09-25T03:17:37.066Z,13.64
2018-09-25T03:18:08.205Z,13.63
2018-09-25T03:18:39.352Z,13.64
2018-09-25T03:19:10.519Z,13.67
2018-09-25T03:19:41.649Z,13.69
2018-09-25T03:20:12.773Z,13.73
2018-09-25T03:20:43.889Z,13.81
2018-09-25T03:21:14.998Z,13.82
2018-09-25T03:21:46.126Z,13.73
2018-09-25T03:22:17.257Z,13.73
2018-09-25T03:22:48.377Z,13.71
2018-09-25T03:23:19.510Z,13.73
2018-09-25T03:23:50.684Z,13.74
2018-09-25T03:24:21.810Z,13.69
2018-09-25T03:24:52.929Z,13.68
2018-09-25T03:25:24.074Z,13.73
2018-09-25T03:25:55.263Z,13.78
2018-09-25T03:26:26.405Z,13.86
2018-09-25T03:26:57.525Z,13.88
2018-09-25T03:27:28.631Z,13.87
2018-09-25T03:27:59.725Z,13.88
2018-09-25T03:28:30.837Z,13.84
2018-09-25T03:29:01.961Z,13.75
2018-09-25T03:29:33.087Z,13.78
2018-09-25T03:30:04.221Z,13.83
2018-09-25T03:30:35.382Z,13.88
2018-09-25T03:31:06.517Z,13.96
2018-09-25T03:31:37.666Z,13.98
2018-09-25T03:32:08.841Z,13.90
2018-09-25T03:32:39.986Z,13.80
2018-09-25T03:33:11.102Z,13.80
2018-09-25T03:33:42.214Z,13.78
2018-09-25T03:34:13.323Z,13.75
2018-09-25T03:34:44.413Z,13.74
2018-09-25T03:35:15.507Z,13.74
2018-09-25T03:35:46.610Z,13.73
2018-09-25T03:36:17.749Z,13.75
2018-09-25T03:36:48.852Z,13.78
2018-09-25T03:37:19.961Z,11.37
2018-09-25T03:37:51.059Z,13.65
2018-09-25T03:38:22.170Z,13.60
2018-09-25T03:38:53.273Z,13.65
2018-09-25T03:39:24.365Z,13.73
2018-09-25T03:39:55.472Z,13.75
2018-09-25T03:40:26.592Z,13.80
2018-09-25T03:40:57.719Z,13.86
2018-09-25T03:41:28.874Z,13.93
2018-09-25T03:41:59.985Z,13.96
2018-09-25T03:42:31.087Z,13.86
2018-09-25T03:43:02.186Z,13.76
2018-09-25T03:43:33.313Z,13.65
2018-09-25T03:44:04.482Z,13.65
2018-09-25T03:44:35.591Z,13.59
2018-09-25T03:45:06.746Z,13.56
2018-09-25T03:45:37.859Z,13.50
2018-09-25T03:46:08.960Z,13.53
2018-09-25T03:46:40.105Z,13.56
2018-09-25T03:47:11.262Z,13.57
2018-09-25T03:47:42.376Z,13.50
2018-09-25T03:48:13.527Z,13.42
2018-09-25T03:48:44.650Z,13.51
2018-09-25T03:49:15.837Z,13.49
2018-09-25T03:49:46.943Z,13.50
2018-09-25T03:50:18.045Z,13.44
2018-09-25T03:50:49.143Z,13.43
2018-09-25T03:51:20.293Z,13.37
2018-09-25T03:51:51.478Z,13.41
2018-09-25T03:52:22.591Z,13.42
2018-09-25T03:52:53.692Z,13.39
2018-09-25T03:53:24.793Z,13.35
2018-09-25T03:53:55.894Z,13.32
2018-09-25T03:54:27.092Z,13.33
2018-09-25T03:54:58.225Z,13.31
2018-09-25T03:55:29.333Z,13.30
2018-09-25T03:56:00.443Z,13.29
2018-09-25T03:56:31.552Z,13.25
2018-09-25T03:57:02.654Z,13.22
2018-09-25T03:57:33.798Z,13.20
2018-09-25T03:58:04.923Z,13.18
2018-09-25T03:58:36.037Z,13.13
2018-09-25T03:59:07.176Z,13.11
2018-09-25T03:59:38.371Z,13.16
2018-09-25T04:00:09.513Z,13.21
2018-09-25T04:00:40.643Z,13.27
2018-09-25T04:01:11.750Z,13.27
2018-09-25T04:01:42.845Z,13.34
2018-09-25T04:02:14.000Z,13.33
2018-09-25T04:02:45.130Z,13.30
2018-09-25T04:03:16.264Z,13.31
2018-09-25T04:03:47.387Z,13.27
2018-09-25T04:04:18.491Z,13.21
2018-09-25T04:04:49.596Z,13.20
2018-09-25T04:05:20.689Z,13.17
2018-09-25T04:05:51.785Z,13.25
2018-09-25T04:06:22.956Z,13.25
2018-09-25T04:07:31.369Z,13.25
2018-09-25T04:08:02.494Z,13.24
2018-09-25T04:08:33.599Z,13.20
2018-09-25T04:09:04.690Z,13.18
2018-09-25T04:09:35.828Z,13.12
2018-09-25T04:10:06.938Z,13.08
2018-09-25T04:10:38.061Z,13.09
2018-09-25T04:11:09.170Z,13.11
2018-09-25T04:11:40.299Z,13.18
2018-09-25T04:12:11.427Z,13.21
2018-09-25T04:12:42.535Z,13.22
2018-09-25T04:13:13.634Z,13.17
2018-09-25T04:13:44.762Z,13.14
2018-09-25T04:14:15.851Z,13.10
2018-09-25T04:14:46.962Z,13.09
2018-09-25T04:15:18.062Z,13.04
2018-09-25T04:15:49.187Z,13.07
2018-09-25T04:16:20.294Z,13.10
2018-09-25T04:16:51.400Z,13.14
2018-09-25T04:17:22.516Z,13.14
2018-09-25T04:17:53.672Z,13.16
2018-09-25T04:18:24.795Z,13.14
2018-09-25T04:18:55.952Z,13.14
2018-09-25T04:19:27.049Z,13.13
2018-09-25T04:19:58.179Z,13.12
2018-09-25T04:20:29.305Z,13.09
2018-09-25T04:21:00.466Z,13.15
2018-09-25T04:21:31.579Z,13.21
2018-09-25T04:22:02.682Z,13.26
2018-09-25T04:22:33.811Z,13.29
2018-09-25T04:23:04.959Z,13.26
2018-09-25T04:23:36.063Z,13.23
2018-09-25T04:24:07.192Z,13.23
2018-09-25T04:24:38.299Z,13.27
2018-09-25T04:25:09.432Z,13.32
2018-09-25T04:25:40.554Z,13.34
2018-09-25T04:26:11.673Z,13.30
2018-09-25T04:26:42.779Z,13.26
2018-09-25T04:27:13.897Z,13.19
2018-09-25T04:27:45.014Z,13.12
2018-09-25T04:28:16.215Z,13.08
2018-09-25T04:28:47.339Z,13.07
2018-09-25T04:29:18.480Z,13.05
2018-09-25T04:29:49.584Z,13.05
2018-09-25T04:30:20.702Z,13.04
2018-09-25T04:30:51.826Z,13.00
2018-09-25T04:31:22.934Z,13.02
2018-09-25T04:31:54.088Z,13.01
2018-09-25T04:32:25.217Z,13.01
2018-09-25T04:32:56.349Z,13.02
2018-09-25T04:33:27.460Z,13.02
2018-09-25T04:33:58.584Z,12.99
2018-09-25T04:34:29.729Z,12.94
2018-09-25T04:35:00.836Z,12.95
2018-09-25T04:35:31.957Z,13.01
2018-09-25T04:36:03.070Z,13.02
2018-09-25T04:36:34.169Z,13.03
2018-09-25T04:37:05.305Z,13.03
2018-09-25T04:37:36.450Z,13.08
2018-09-25T04:38:07.562Z,13.09
2018-09-25T04:38:38.666Z,13.03
2018-09-25T04:39:09.783Z,13.03
2018-09-25T04:39:40.900Z,13.01
2018-09-25T04:40:12.029Z,13.03
2018-09-25T04:40:43.170Z,12.99
2018-09-25T04:41:14.319Z,13.00
2018-09-25T04:41:45.414Z,13.01
2018-09-25T04:42:16.529Z,13.00
2018-09-25T04:42:47.632Z,12.96
2018-09-25T04:43:18.745Z,12.92
2018-09-25T04:43:49.848Z,12.90
2018-09-25T04:44:20.995Z,12.86
2018-09-25T04:44:52.114Z,12.91
2018-09-25T04:45:23.253Z,12.90
2018-09-25T04:45:54.350Z,12.96
2018-09-25T04:46:25.471Z,12.97
2018-09-25T04:46:56.594Z,12.94
2018-09-25T04:47:27.709Z,12.93
2018-09-25T04:47:58.917Z,13.03
2018-09-25T04:48:29.996Z,13.05
2018-09-25T04:49:01.098Z,13.15
2018-09-25T04:49:32.226Z,13.18
2018-09-25T04:50:03.355Z,13.11
2018-09-25T04:50:34.489Z,13.03
2018-09-25T04:51:05.621Z,12.98
2018-09-25T04:51:36.722Z,12.94
2018-09-25T04:52:07.850Z,12.92
2018-09-25T04:52:38.993Z,12.92
2018-09-25T04:53:10.134Z,12.93
2018-09-25T04:53:41.239Z,12.96
2018-09-25T04:54:12.349Z,12.95
2018-09-25T04:54:43.465Z,12.97
2018-09-25T04:55:14.569Z,13.08
2018-09-25T04:55:45.723Z,13.13
2018-09-25T04:56:16.822Z,13.16
2018-09-25T04:56:47.951Z,13.13
2018-09-25T04:57:19.075Z,13.13
2018-09-25T04:57:50.189Z,13.15
2018-09-25T04:58:21.294Z,13.13
2018-09-25T04:58:52.391Z,13.16
2018-09-25T04:59:23.498Z,13.16
2018-09-25T04:59:54.603Z,13.17
2018-09-25T05:00:25.712Z,13.09
2018-09-25T05:00:56.842Z,12.27
2018-09-25T05:01:27.950Z,13.02
2018-09-25T05:01:59.103Z,12.91
2018-09-25T05:02:30.194Z,12.96
2018-09-25T05:03:01.293Z,13.04
2018-09-25T05:03:32.387Z,13.06
2018-09-25T05:04:03.511Z,13.06
2018-09-25T05:04:34.609Z,13.05
2018-09-25T05:05:05.711Z,13.11
2018-09-25T05:05:36.842Z,13.14
2018-09-25T05:06:07.959Z,13.10
2018-09-25T05:06:39.108Z,13.09
2018-09-25T05:07:10.245Z,13.10
2018-09-25T05:07:41.346Z,13.09
2018-09-25T05:08:12.465Z,13.15
2018-09-25T05:08:43.593Z,13.16
2018-09-25T05:09:14.710Z,13.15
2018-09-25T05:09:45.841Z,13.12
2018-09-25T05:10:16.954Z,12.83
2018-09-25T05:10:48.080Z,13.06
2018-09-25T05:11:19.201Z,13.07
2018-09-25T05:11:50.327Z,13.17
2018-09-25T05:12:21.482Z,13.13
2018-09-25T05:12:52.630Z,13.18
2018-09-25T05:13:23.761Z,13.18
2018-09-25T05:13:54.884Z,13.12
2018-09-25T05:14:26.039Z,13.15
2018-09-25T05:14:57.178Z,13.20
2018-09-25T05:15:28.441Z,13.19
2018-09-25T05:15:59.566Z,13.09
2018-09-25T05:16:30.681Z,13.03
2018-09-25T05:17:01.816Z,13.02
2018-09-25T05:17:32.986Z,13.07
2018-09-25T05:18:04.158Z,13.13
2018-09-25T05:18:35.303Z,13.19
2018-09-25T05:19:06.416Z,13.28
2018-09-25T05:19:37.555Z,13.39
2018-09-25T05:20:08.692Z,13.42
2018-09-25T05:20:39.798Z,13.33
2018-09-25T05:21:10.895Z,13.23
2018-09-25T05:21:41.998Z,13.17
2018-09-25T05:22:13.130Z,13.14
2018-09-25T05:22:44.292Z,13.15
2018-09-25T05:23:15.480Z,13.17
2018-09-25T05:23:46.616Z,13.17
2018-09-25T05:24:17.779Z,13.13
2018-09-25T05:24:48.955Z,13.04
2018-09-25T05:25:20.142Z,12.98
2018-09-25T05:25:51.265Z,13.04
2018-09-25T05:26:22.369Z,13.08
2018-09-25T05:26:53.477Z,13.03
2018-09-25T05:27:24.597Z,12.96
2018-09-25T05:27:55.756Z,13.00
2018-09-25T05:28:26.882Z,12.99
2018-09-25T05:28:58.079Z,12.99
2018-09-25T05:29:29.187Z,13.00
2018-09-25T05:30:00.325Z,13.04
2018-09-25T05:30:31.487Z,13.07
2018-09-25T05:31:02.677Z,13.16
2018-09-25T05:31:33.796Z,13.24
2018-09-25T05:32:04.941Z,13.33
2018-09-25T05:32:36.129Z,13.35
2018-09-25T05:33:07.323Z,13.52
2018-09-25T05:33:38.462Z,13.57
2018-09-25T05:34:09.570Z,13.57
2018-09-25T05:34:40.866Z,13.56
2018-09-25T05:35:12.022Z,13.49
2018-09-25T05:35:43.175Z,13.26
2018-09-25T05:36:14.314Z,13.48
2018-09-25T05:36:45.451Z,13.62
2018-09-25T05:37:16.553Z,13.69
2018-09-25T05:37:47.687Z,13.72
2018-09-25T05:38:18.924Z,13.75
2018-09-25T05:38:50.063Z,13.77
2018-09-25T05:39:21.268Z,13.68
2018-09-25T05:39:52.417Z,13.64
2018-09-25T05:40:23.526Z,13.55
2018-09-25T05:40:54.652Z,13.49
2018-09-25T05:41:25.776Z,13.39
2018-09-25T05:41:56.932Z,13.36
2018-09-25T05:42:28.094Z,13.45
2018-09-25T05:42:59.209Z,13.60
2018-09-25T05:43:30.408Z,13.67
2018-09-25T05:44:01.503Z,13.76
2018-09-25T05:44:32.646Z,13.83
2018-09-25T05:45:03.780Z,13.94
2018-09-25T05:45:34.959Z,14.08
2018-09-25T05:46:06.106Z,14.18
2018-09-25T05:46:37.229Z,14.17
2018-09-25T05:47:08.363Z,14.16
2018-09-25T05:47:39.475Z,14.31
2018-09-25T05:48:10.665Z,14.43
2018-09-25T05:48:41.831Z,14.58
2018-09-25T05:49:12.947Z,14.71
2018-09-25T05:49:44.078Z,14.75
2018-09-25T05:50:15.203Z,14.72
2018-09-25T05:50:46.429Z,14.72
2018-09-25T05:51:17.551Z,14.71
2018-09-25T05:51:48.706Z,14.70
2018-09-25T05:52:19.862Z,14.66
2018-09-25T05:52:50.994Z,14.74
2018-09-25T05:53:22.102Z,14.85
2018-09-25T05:53:53.227Z,14.76
2018-09-25T05:54:24.369Z,14.66
2018-09-25T05:54:55.491Z,14.58
2018-09-25T05:55:26.702Z,14.62
2018-09-25T05:55:57.786Z,14.58
2018-09-25T05:56:28.917Z,14.57
2018-09-25T05:57:00.064Z,14.63
2018-09-25T05:57:31.261Z,14.65
2018-09-25T05:58:37.050Z,14.83
2018-09-25T05:59:08.421Z,15.03
2018-09-25T05:59:39.579Z,15.09
2018-09-25T06:00:10.704Z,15.21
2018-09-25T06:00:41.876Z,15.27
2018-09-25T06:01:13.061Z,15.18
2018-09-25T06:01:44.353Z,15.14
2018-09-25T06:02:15.458Z,15.19
2018-09-25T06:02:46.605Z,15.38
2018-09-25T06:03:17.774Z,15.35
2018-09-25T06:03:48.899Z,14.26
2018-09-25T06:04:20.063Z,15.49
2018-09-25T06:04:51.248Z,15.51
2018-09-25T06:05:22.647Z,15.37
2018-09-25T06:05:53.881Z,15.18
2018-09-25T06:06:25.155Z,15.23
2018-09-25T06:06:56.286Z,15.17
2018-09-25T06:07:27.474Z,15.11
2018-09-25T06:07:58.627Z,15.08
2018-09-25T06:08:29.785Z,15.16
2018-09-25T06:09:01.021Z,15.15
2018-09-25T06:09:32.199Z,14.87
2018-09-25T06:10:03.304Z,14.73
2018-09-25T06:10:34.463Z,14.76
2018-09-25T06:11:05.640Z,14.73
2018-09-25T06:11:36.914Z,14.68
2018-09-25T06:12:08.156Z,14.71
2018-09-25T06:12:39.388Z,14.81
2018-09-25T06:13:10.612Z,14.93
2018-09-25T06:13:41.739Z,14.89
2018-09-25T06:14:12.918Z,14.84
2018-09-25T06:14:44.059Z,14.90
2018-09-25T06:15:15.321Z,14.94
2018-09-25T06:15:46.484Z,15.06
2018-09-25T06:16:17.717Z,15.05
2018-09-25T06:16:48.906Z,15.01
2018-09-25T06:17:20.070Z,15.09
2018-09-25T06:17:51.321Z,15.11
2018-09-25T06:18:22.421Z,15.16
2018-09-25T06:18:53.589Z,15.26
2018-09-25T06:19:24.782Z,15.24
2018-09-25T06:19:56.044Z,15.24
2018-09-25T06:20:27.299Z,15.17
2018-09-25T06:20:58.503Z,15.09
2018-09-25T06:21:29.633Z,15.19
2018-09-25T06:22:00.831Z,15.28
2018-09-25T06:22:31.985Z,15.29
2018-09-25T06:23:03.130Z,15.30
2018-09-25T06:23:35.413Z,15.10
2018-09-25T06:24:06.646Z,15.06
2018-09-25T06:24:37.762Z,15.06
2018-09-25T06:25:08.883Z,15.07
2018-09-25T06:25:40.161Z,15.13
2018-09-25T06:26:11.384Z,15.16
2018-09-25T06:26:42.511Z,15.14
2018-09-25T06:27:13.614Z,15.16
2018-09-25T06:27:44.730Z,15.09
2018-09-25T06:28:15.875Z,15.21
2018-09-25T06:28:47.177Z,15.24
2018-09-25T06:29:19.966Z,15.29
2018-09-25T06:29:51.157Z,15.42
2018-09-25T06:30:22.342Z,15.48
2018-09-25T06:30:53.524Z,15.50
2018-09-25T06:31:24.653Z,15.41
2018-09-25T06:31:55.782Z,15.25
2018-09-25T06:32:26.944Z,15.10
2018-09-25T06:32:59.088Z,15.06
2018-09-25T06:33:30.199Z,15.03
2018-09-25T06:34:01.335Z,15.02
2018-09-25T06:34:32.456Z,15.06
2018-09-25T06:35:03.615Z,15.13
2018-09-25T06:35:34.777Z,15.19
2018-09-25T06:36:05.920Z,15.16
2018-09-25T06:36:37.096Z,15.18
2018-09-25T06:37:08.258Z,15.10
2018-09-25T06:37:39.353Z,15.15
2018-09-25T06:38:10.488Z,15.14
2018-09-25T06:38:41.639Z,15.22
2018-09-25T06:39:12.792Z,15.23
2018-09-25T06:39:43.941Z,15.26
2018-09-25T06:40:15.071Z,15.14
2018-09-25T06:40:46.278Z,15.12
2018-09-25T06:41:17.396Z,15.16
2018-09-25T06:41:48.508Z,15.30
2018-09-25T06:42:19.639Z,15.44
2018-09-25T06:42:50.780Z,15.50